Time;durP1;ratioP1;P1;durP2;ratioP2;P2;SDS_P1;SDS_P2;PMS_P1;PMS_P2;Temp;Humidity;BMP_temperature;BMP_pressure;BME280_temperature;BME280_humidity;BME280_pressure;Samples;Min_cycle;Max_cycle;Signal;HPM_P1;HPM_P2
2022/06/24 00:00:36;;;;;;;0.50;0.50;;;18.60;57.90;;;19.02;42.46;94660.38;5037841;28;20225;-78
2022/06/24 00:03:03;;;;;;;0.50;0.50;;;18.50;58.60;;;18.98;42.04;94656.63;5037075;28;20191;-78
2022/06/24 00:05:31;;;;;;;0.60;0.60;;;18.50;58.20;;;18.92;42.38;94652.31;5070608;28;20210;-77
2022/06/24 00:07:59;;;;;;;0.60;0.60;;;18.50;58.30;;;18.86;42.80;94647.97;5056865;28;20230;-76
2022/06/24 00:10:33;;;;;;;0.50;0.50;;;18.30;58.50;;;18.79;42.92;94656.13;5055335;28;20309;-78
2022/06/24 00:13:01;;;;;;;0.60;0.60;;;18.30;59.30;;;18.71;43.15;94653.91;5036973;28;20592;-78
2022/06/24 00:15:34;;;;;;;0.60;0.60;;;18.20;58.90;;;18.62;43.70;94645.56;5033237;28;20232;-77
2022/06/24 00:18:18;;;;;;;0.50;0.50;;;18.20;59.30;;;18.56;43.57;94643.91;5042436;28;20205;-77
2022/06/24 00:20:50;;;;;;;0.50;0.50;;;18.10;59.60;;;18.50;43.55;94637.72;5053633;28;20211;-78
2022/06/24 00:23:22;;;;;;;0.50;0.50;;;18.10;59.30;;;18.48;43.43;94642.50;5050092;28;20668;-78
2022/06/24 00:25:50;;;;;;;0.50;0.50;;;18.00;59.60;;;18.44;43.75;94645.91;5056725;28;20645;-77
2022/06/24 00:28:18;;;;;;;0.50;0.50;;;18.00;59.40;;;18.38;43.57;94639.72;5059144;28;20231;-77
2022/06/24 00:30:55;;;;;;;0.50;0.50;;;17.90;59.40;;;18.28;44.13;94632.44;5053142;28;20217;-77
2022/06/24 00:33:32;;;;;;;0.60;0.60;;;17.90;60.30;;;18.28;44.24;94648.34;5037087;28;20278;-77
2022/06/24 00:36:00;;;;;;;0.50;0.50;;;17.80;60.20;;;18.24;43.58;94648.03;5036581;28;20757;-77
2022/06/24 00:38:31;;;;;;;0.60;0.60;;;17.80;59.80;;;18.21;44.05;94651.22;5072626;28;20198;-78
2022/06/24 00:41:08;;;;;;;0.60;0.60;;;17.80;60.20;;;18.16;44.36;94645.84;5069227;28;20231;-78
2022/06/24 00:43:46;;;;;;;0.50;0.50;;;17.70;60.50;;;18.12;43.77;94644.72;5055995;28;20205;-78
2022/06/24 00:46:23;;;;;;;0.50;0.50;;;17.70;60.80;;;18.08;44.56;94643.59;5040528;28;20309;-77
2022/06/24 00:48:53;;;;;;;0.50;0.50;;;17.60;60.70;;;18.04;44.20;94645.13;5069252;28;20257;-77
2022/06/24 00:51:22;;;;;;;0.63;0.63;;;17.60;60.60;;;18.00;44.66;94642.16;5062995;28;20215;-77
2022/06/24 00:53:55;;;;;;;0.50;0.50;;;17.50;60.50;;;17.96;44.42;94642.91;5037091;28;20211;-77
2022/06/24 00:56:26;;;;;;;0.60;0.60;;;17.50;61.20;;;17.92;44.72;94646.00;5055824;28;20238;-77
2022/06/24 00:58:59;;;;;;;0.70;0.70;;;17.50;61.10;;;17.88;44.83;94641.44;5049334;28;20290;-78
2022/06/24 01:01:40;;;;;;;0.60;0.60;;;17.50;61.00;;;17.85;45.23;94642.72;5044871;28;20222;-78
2022/06/24 01:04:11;;;;;;;0.60;0.60;;;17.40;62.30;;;17.82;45.08;94631.81;5039132;28;20207;-78
2022/06/24 01:06:41;;;;;;;0.55;0.55;;;17.40;61.40;;;17.78;45.33;94623.53;5068836;28;20208;-78
2022/06/24 01:09:09;;;;;;;0.70;0.70;;;17.40;61.50;;;17.76;45.39;94628.28;5051712;28;20316;-78
2022/06/24 01:11:43;;;;;;;0.70;0.70;;;17.30;61.30;;;17.74;45.52;94619.75;5050644;28;20214;-78
2022/06/24 01:14:12;;;;;;;0.60;0.60;;;17.30;61.40;;;17.70;45.98;94618.63;5050111;28;20233;-77
2022/06/24 01:16:39;;;;;;;0.60;0.60;;;17.20;61.30;;;17.66;45.57;94615.66;5069238;28;20289;-78
2022/06/24 01:19:13;;;;;;;0.70;0.70;;;17.20;61.30;;;17.64;45.75;94604.50;5072181;28;20199;-78
2022/06/24 01:21:51;;;;;;;0.60;0.60;;;17.20;61.30;;;17.60;45.99;94598.06;5071214;28;20222;-78
2022/06/24 01:24:24;;;;;;;0.60;0.60;;;17.30;61.40;;;17.58;45.85;94602.84;5067782;28;20198;-78
2022/06/24 01:26:57;;;;;;;0.50;0.50;;;17.20;61.80;;;17.53;46.18;94598.25;5054249;28;20219;-78
2022/06/24 01:29:26;;;;;;;0.50;0.50;;;17.10;61.80;;;17.53;46.16;94600.13;5051896;28;20241;-77
2022/06/24 01:31:54;;;;;;;0.60;0.60;;;17.10;61.20;;;17.51;46.08;94588.94;5048107;28;20218;-77
2022/06/24 01:34:24;;;;;;;0.50;0.50;;;17.10;61.50;;;17.48;46.42;94595.53;5035267;28;20642;-78
2022/06/24 01:36:51;;;;;;;0.60;0.60;;;17.00;61.70;;;17.47;46.42;94588.63;5018684;28;20213;-77
2022/06/24 01:39:20;;;;;;;0.50;0.50;;;17.00;61.70;;;17.44;46.37;94581.97;5051836;28;20198;-78
2022/06/24 01:41:50;;;;;;;0.70;0.70;;;17.00;61.90;;;17.44;46.81;94584.59;5058015;28;20226;-77
2022/06/24 01:44:19;;;;;;;0.50;0.50;;;17.00;62.00;;;17.43;46.58;94580.34;5071662;28;20736;-77
2022/06/24 01:46:46;;;;;;;0.50;0.50;;;17.00;62.20;;;17.42;46.71;94578.75;5039735;28;20207;-78
2022/06/24 01:49:14;;;;;;;0.60;0.60;;;16.90;62.00;;;17.41;47.05;94577.13;5051521;28;20716;-78
2022/06/24 01:51:44;;;;;;;0.60;0.60;;;16.90;62.10;;;17.40;47.01;94572.06;5067228;28;20226;-78
2022/06/24 01:54:11;;;;;;;0.60;0.60;;;16.90;62.30;;;17.37;47.29;94565.41;5067342;28;20199;-78
2022/06/24 01:56:38;;;;;;;0.50;0.50;;;16.90;62.20;;;17.36;47.05;94566.44;5068578;28;20627;-78
2022/06/24 01:59:14;;;;;;;0.68;0.68;;;17.00;62.40;;;17.34;47.35;94555.28;5055522;28;20202;-77
2022/06/24 02:01:43;;;;;;;0.52;0.52;;;16.90;62.50;;;17.32;46.92;94560.03;5057258;28;20191;-77
2022/06/24 02:04:11;;;;;;;0.57;0.57;;;17.00;62.60;;;17.31;47.14;94566.38;5034420;28;20233;-76
2022/06/24 02:06:39;;;;;;;0.50;0.50;;;16.90;62.60;;;17.29;47.08;94553.34;5055015;28;20206;-77
2022/06/24 02:09:07;;;;;;;0.50;0.50;;;16.90;62.60;;;17.27;47.51;94550.16;5068246;28;20227;-77
2022/06/24 02:14:22;;;;;;;0.60;0.60;;;16.90;62.80;;;17.21;47.47;94545.00;5077336;28;20202;-77
2022/06/24 02:16:49;;;;;;;0.55;0.55;;;16.80;62.60;;;17.18;47.46;94543.66;5053236;28;20195;-78
2022/06/24 02:19:16;;;;;;;0.60;0.60;;;16.80;62.70;;;17.14;47.59;94545.19;5068011;28;20384;-77
2022/06/24 02:21:44;;;;;;;0.70;0.70;;;16.70;62.70;;;17.11;48.00;94545.66;5051153;28;20191;-78
2022/06/24 02:24:13;;;;;;;0.60;0.60;;;16.70;62.80;;;17.07;47.71;94544.56;5055547;28;20195;-77
2022/06/24 02:26:43;;;;;;;0.60;0.60;;;16.70;63.00;;;17.05;47.96;94542.16;5054603;28;20203;-77
2022/06/24 02:29:12;;;;;;;0.50;0.50;;;16.60;63.00;;;17.00;47.96;94534.09;5054789;28;20245;-78
2022/06/24 02:31:39;;;;;;;0.52;0.52;;;16.60;63.10;;;16.99;48.13;94531.69;5067142;28;20260;-77
2022/06/24 02:34:07;;;;;;;0.50;0.50;;;16.60;63.20;;;16.99;47.93;94535.16;5053417;28;20234;-77
2022/06/24 02:36:34;;;;;;;0.60;0.60;;;16.60;63.30;;;16.98;48.37;94530.09;5070970;28;20218;-77
2022/06/24 02:39:01;;;;;;;0.70;0.70;;;16.60;63.50;;;16.99;48.14;94521.91;5059504;28;20248;-78
2022/06/24 02:41:29;;;;;;;0.50;0.50;;;16.60;63.60;;;16.98;48.28;94538.03;5033644;28;20611;-78
2022/06/24 02:43:56;;;;;;;0.50;0.50;;;16.50;63.50;;;16.97;48.58;94534.59;5036988;28;20199;-77
2022/06/24 02:46:23;;;;;;;0.50;0.50;;;16.60;63.60;;;16.97;48.50;94537.25;5051162;28;20322;-77
2022/06/24 02:48:51;;;;;;;0.50;0.50;;;16.50;63.60;;;16.98;48.76;94532.75;5053563;28;20258;-77
2022/06/24 02:51:18;;;;;;;0.60;0.60;;;16.50;63.80;;;16.94;48.53;94527.94;5084638;28;20218;-77
2022/06/24 02:53:45;;;;;;;0.50;0.50;;;16.50;63.80;;;16.96;48.61;94533.78;5067318;28;20226;-77
2022/06/24 02:56:14;;;;;;;0.52;0.52;;;16.50;63.90;;;16.98;49.01;94533.56;5071163;28;20242;-77
2022/06/24 02:58:42;;;;;;;0.50;0.50;;;16.60;64.10;;;17.00;48.66;94533.31;5067460;28;20187;-77
2022/06/24 03:01:10;;;;;;;0.60;0.60;;;16.60;64.10;;;17.00;48.96;94530.66;5050949;28;20306;-77
2022/06/24 03:03:39;;;;;;;0.60;0.60;;;16.60;64.10;;;16.99;49.08;94529.88;5034189;28;20199;-77
2022/06/24 03:06:07;;;;;;;0.50;0.50;;;16.60;64.10;;;16.99;49.06;94531.69;5038424;28;20260;-77
2022/06/24 03:08:35;;;;;;;0.50;0.50;;;16.60;64.20;;;17.01;49.14;94527.75;5043619;28;20227;-78
2022/06/24 03:11:06;;;;;;;0.50;0.50;;;16.60;64.30;;;17.02;49.10;94523.28;5051813;28;20230;-78
2022/06/24 03:13:33;;;;;;;0.60;0.60;;;16.70;64.30;;;17.05;49.23;94533.38;5034205;28;20192;-78
2022/06/24 03:16:01;;;;;;;0.60;0.60;;;16.60;64.30;;;17.06;48.91;94538.44;5067113;28;20219;-77
2022/06/24 03:18:28;;;;;;;0.50;0.50;;;16.60;64.40;;;17.08;49.53;94538.22;5062314;28;20196;-77
2022/06/24 03:20:55;;;;;;;0.50;0.50;;;16.60;64.40;;;17.10;49.17;94541.41;5051666;28;20298;-78
2022/06/24 03:23:23;;;;;;;0.73;0.73;;;16.70;64.60;;;17.10;49.13;94536.94;5051432;28;20544;-77
2022/06/24 03:25:50;;;;;;;0.70;0.70;;;16.70;64.60;;;17.14;49.76;94545.19;5020720;28;20227;-79
2022/06/24 03:28:17;;;;;;;0.60;0.60;;;16.70;64.60;;;17.17;49.39;94536.75;5068183;28;20224;-77
2022/06/24 03:30:44;;;;;;;0.50;0.50;;;16.80;64.70;;;17.18;49.62;94541.00;5086685;28;20211;-77
2022/06/24 03:33:13;;;;;;;0.60;0.60;;;16.80;64.70;;;17.22;49.33;94543.97;5064821;28;20218;-78
2022/06/24 03:35:41;;;;;;;0.70;0.70;;;16.80;64.70;;;17.24;50.00;94537.38;5044613;28;20282;-77
2022/06/24 03:38:08;;;;;;;0.50;0.50;;;16.80;64.70;;;17.28;49.75;94543.81;5051313;28;20207;-78
2022/06/24 03:40:36;;;;;;;0.70;0.70;;;16.80;64.90;;;17.32;49.98;94541.50;5061974;28;20215;-77
2022/06/24 03:43:03;;;;;;;0.60;0.60;;;16.90;65.00;;;17.37;50.00;94546.84;5071245;28;20195;-77
2022/06/24 03:45:31;;;;;;;0.55;0.55;;;17.00;65.00;;;17.41;49.86;94544.53;5054315;28;20710;-76
2022/06/24 03:47:58;;;;;;;0.50;0.50;;;17.00;65.00;;;17.45;49.85;94553.59;5054127;28;20233;-77
2022/06/24 03:50:25;;;;;;;0.50;0.50;;;17.00;65.10;;;17.49;49.69;94554.72;5075155;28;20214;-77
2022/06/24 03:52:52;;;;;;;0.52;0.52;;;17.00;65.00;;;17.53;49.90;94553.16;5041618;28;20356;-77
2022/06/24 03:55:20;;;;;;;0.60;0.60;;;17.10;65.10;;;17.59;50.22;94554.06;5068088;28;20235;-78
2022/06/24 03:57:48;;;;;;;0.50;0.50;;;17.20;65.20;;;17.63;49.89;94554.38;5051818;28;20195;-78
2022/06/24 04:00:15;;;;;;;0.50;0.50;;;17.20;65.20;;;17.67;50.01;94545.66;5072184;28;20296;-78
2022/06/24 04:02:44;;;;;;;0.57;0.57;;;17.30;65.30;;;17.73;50.37;94557.16;5046221;28;20195;-79
2022/06/24 04:05:14;;;;;;;0.50;0.50;;;17.40;65.30;;;17.79;50.31;94545.56;5052324;28;20204;-79
2022/06/24 04:07:41;;;;;;;0.50;0.50;;;17.50;65.60;;;17.86;49.89;94548.03;5063237;28;20191;-78
2022/06/24 04:10:09;;;;;;;0.60;0.60;;;17.40;65.30;;;17.89;50.28;94537.72;5050507;28;20227;-78
2022/06/24 04:12:36;;;;;;;0.60;0.60;;;17.50;65.30;;;17.96;49.91;94545.53;5018608;28;20310;-79
2022/06/24 04:15:19;;;;;;;0.55;0.55;;;17.60;65.50;;;17.98;50.10;94532.81;5048327;28;20220;-78
2022/06/24 04:17:48;;;;;;;0.50;0.50;;;17.60;65.50;;;18.09;50.09;94544.38;5042520;28;20202;-78
2022/06/24 04:20:17;;;;;;;0.60;0.60;;;17.70;65.50;;;18.12;50.48;94543.84;5018064;28;20219;-77
2022/06/24 04:22:46;;;;;;;0.50;0.50;;;17.80;65.60;;;18.19;50.32;94546.31;5034759;28;20227;-78
2022/06/24 04:25:13;;;;;;;0.50;0.50;;;17.80;65.50;;;18.26;50.14;94546.94;5069199;28;20254;-78
2022/06/24 04:27:40;;;;;;;0.52;0.52;;;17.90;65.50;;;18.34;50.81;94548.34;5066948;28;20199;-78
2022/06/24 04:30:11;;;;;;;0.60;0.60;;;18.00;65.50;;;18.39;50.69;94546.56;5053500;28;20239;-78
2022/06/24 04:32:39;;;;;;;0.50;0.50;;;18.00;65.60;;;18.44;50.30;94537.81;5066710;28;20219;-79
2022/06/24 04:35:06;;;;;;;0.50;0.50;;;18.10;65.50;;;18.53;50.76;94538.19;5035983;28;20219;-77
2022/06/24 04:37:39;;;;;;;0.50;0.50;;;18.20;65.50;;;18.59;50.61;94536.34;5054824;28;20621;-79
2022/06/24 04:40:11;;;;;;;0.50;0.50;;;18.30;65.70;;;18.63;50.38;94529.50;5035561;28;20610;-78
2022/06/24 04:42:39;;;;;;;0.50;0.50;;;18.30;65.60;;;18.71;50.55;94540.47;5069499;28;20203;-79
2022/06/24 04:45:07;;;;;;;0.40;0.40;;;18.40;65.50;;;18.78;50.11;94536.81;5035684;28;20673;-78
2022/06/24 04:47:34;;;;;;;0.60;0.60;;;18.50;65.60;;;18.85;50.34;94540.06;5047976;28;20206;-77
2022/06/24 04:50:01;;;;;;;0.60;0.60;;;18.50;65.50;;;18.92;50.34;94543.34;5052532;28;20227;-79
2022/06/24 04:52:29;;;;;;;0.50;0.50;;;18.60;65.60;;;18.99;50.60;94540.47;5051149;28;20206;-79
2022/06/24 04:54:57;;;;;;;0.55;0.55;;;18.70;65.60;;;19.07;50.56;94539.22;5044365;28;20223;-79
2022/06/24 04:57:25;;;;;;;0.50;0.50;;;18.80;65.70;;;19.13;50.75;94543.50;5034373;28;20254;-79
2022/06/24 04:59:52;;;;;;;0.50;0.50;;;18.80;65.70;;;19.23;50.64;94548.09;5035106;28;20222;-79
2022/06/24 05:02:19;;;;;;;0.45;0.45;;;19.00;65.80;;;19.31;50.46;94535.13;5036831;28;20231;-79
2022/06/24 05:04:46;;;;;;;0.50;0.50;;;19.10;65.80;;;19.40;50.46;94546.06;5059456;28;20250;-77
2022/06/24 05:07:14;;;;;;;0.50;0.50;;;19.10;65.90;;;19.49;50.68;94544.56;5056026;28;20211;-79
2022/06/24 05:09:42;;;;;;;0.47;0.47;;;19.20;66.10;;;19.60;50.93;94545.38;5041919;28;20703;-79
2022/06/24 05:12:10;;;;;;;0.50;0.50;;;19.30;66.00;;;19.71;50.78;94540.13;5055597;28;20623;-79
2022/06/24 05:14:37;;;;;;;0.50;0.50;;;19.40;66.10;;;19.79;51.09;94542.31;5053948;28;20210;-80
2022/06/24 05:17:12;;;;;;;0.50;0.50;;;19.40;66.10;;;19.91;51.33;94540.25;5066235;28;20203;-79
2022/06/24 05:19:39;;;;;;;0.50;0.50;;;19.60;66.20;;;20.02;51.35;94542.94;5035092;28;20230;-79
2022/06/24 05:22:07;;;;;;;0.60;0.60;;;19.70;66.10;;;20.12;50.98;94545.66;5053198;28;20618;-79
2022/06/24 05:24:34;;;;;;;0.57;0.57;;;19.80;66.00;;;20.23;50.84;94541.19;5055305;28;20219;-79
2022/06/24 05:27:01;;;;;;;0.50;0.50;;;19.90;66.10;;;20.33;50.80;94538.53;5071466;28;20194;-80
2022/06/24 05:29:28;;;;;;;0.45;0.45;;;20.00;66.10;;;20.43;51.14;94549.22;5055023;28;20229;-79
2022/06/24 05:31:56;;;;;;;0.40;0.40;;;20.10;66.00;;;20.54;50.47;94555.34;5062117;28;20203;-79
2022/06/24 05:34:24;;;;;;;0.50;0.50;;;20.20;66.10;;;20.63;51.14;94548.47;5019203;28;20231;-78
2022/06/24 05:36:51;;;;;;;0.43;0.43;;;20.30;66.00;;;20.70;50.63;94542.88;5068509;28;20183;-79
2022/06/24 05:39:18;;;;;;;0.40;0.40;;;20.50;66.10;;;20.83;50.54;94541.59;5052702;28;20657;-79
2022/06/24 05:41:46;;;;;;;0.40;0.40;;;20.50;66.00;;;20.91;50.92;94541.06;5034221;28;20191;-78
2022/06/24 05:44:13;;;;;;;0.50;0.50;;;20.60;66.00;;;21.01;51.37;94540.25;5044972;28;20206;-78
2022/06/24 05:46:40;;;;;;;0.40;0.40;;;20.70;66.20;;;21.14;51.28;94544.28;5089183;28;20676;-79
2022/06/24 05:49:07;;;;;;;0.40;0.40;;;20.80;66.30;;;21.26;51.26;94538.66;5073932;28;20227;-80
2022/06/24 05:51:36;;;;;;;0.50;0.50;;;20.90;66.30;;;21.39;50.87;94539.97;5060263;28;20232;-80
2022/06/24 05:56:50;;;;;;;0.40;0.40;;;21.20;66.20;;;21.61;50.68;94537.03;5038228;28;20196;-78
2022/06/24 05:59:17;;;;;;;0.50;0.50;;;21.30;66.10;;;21.74;51.09;94533.78;5051469;28;20640;-79
2022/06/24 06:01:45;;;;;;;0.50;0.50;;;21.50;66.20;;;21.86;50.84;94535.34;5050662;28;20197;-79
2022/06/24 06:04:12;;;;;;;0.45;0.45;;;21.50;65.70;;;21.97;50.29;94536.09;5053153;28;20551;-79
2022/06/24 06:06:40;;;;;;;0.40;0.40;;;21.70;65.70;;;22.09;50.17;94549.16;5062000;28;20229;-79
2022/06/24 06:09:07;;;;;;;0.40;0.40;;;21.80;65.70;;;22.20;50.27;94532.00;5045449;28;20234;-79
2022/06/24 06:11:34;;;;;;;0.40;0.40;;;21.90;65.50;;;22.31;50.14;94538.88;5066216;28;20636;-79
2022/06/24 06:14:01;;;;;;;0.40;0.40;;;22.00;65.40;;;22.45;50.45;94549.00;5069263;28;20209;-80
2022/06/24 06:16:28;;;;;;;0.38;0.38;;;22.20;65.20;;;22.57;50.19;94538.81;5069509;28;20313;-79
2022/06/24 06:18:55;;;;;;;0.50;0.50;;;22.20;65.20;;;22.64;49.68;94536.63;5086896;28;20191;-79
2022/06/24 06:21:23;;;;;;;0.40;0.40;;;22.40;66.30;;;22.79;49.88;94548.25;5052476;28;20559;-79
2022/06/24 06:23:50;;;;;;;0.30;0.30;;;22.50;65.40;;;22.89;49.24;94540.19;5050257;28;20201;-79
2022/06/24 06:26:17;;;;;;;0.40;0.40;;;22.60;65.40;;;22.97;49.49;94538.78;5034149;28;20223;-79
2022/06/24 06:28:44;;;;;;;0.43;0.43;;;22.70;65.20;;;23.01;49.44;94529.13;5017889;28;20226;-79
2022/06/24 06:31:11;;;;;;;0.40;0.40;;;22.90;65.30;;;23.15;49.58;94540.78;5050188;28;20223;-80
2022/06/24 06:33:39;;;;;;;0.50;0.50;;;22.90;64.80;;;23.23;49.27;94538.59;5045029;28;20184;-80
2022/06/24 06:36:11;;;;;;;0.50;0.50;;;23.00;64.80;;;23.30;49.07;94541.75;5034154;28;20223;-79
2022/06/24 06:38:39;;;;;;;0.40;0.40;;;23.10;64.70;;;23.39;49.00;94540.06;5065971;28;20235;-80
2022/06/24 06:41:17;;;;;;;0.40;0.40;;;23.20;64.70;;;23.49;48.95;94537.28;5050762;28;20238;-79
2022/06/24 06:43:44;;;;;;;0.32;0.32;;;23.30;64.90;;;23.60;49.20;94532.63;5049139;28;20269;-78
2022/06/24 06:46:12;;;;;;;0.40;0.40;;;23.40;64.90;;;23.74;48.99;94532.78;5033554;28;20216;-81
2022/06/24 06:48:40;;;;;;;0.38;0.38;;;23.60;64.90;;;23.90;48.66;94535.25;5064569;28;20305;-79
2022/06/24 06:51:08;;;;;;;0.30;0.30;;;23.60;64.70;;;24.03;48.39;94531.91;5077300;28;20226;-81
2022/06/24 06:53:35;;;;;;;0.40;0.40;;;23.70;64.50;;;24.16;48.89;94543.84;5056248;28;20190;-81
2022/06/24 06:56:02;;;;;;;0.35;0.35;;;23.90;64.60;;;24.27;48.43;94531.91;5036042;28;20592;-80
2022/06/24 06:58:29;;;;;;;0.52;0.52;;;24.00;64.40;;;24.41;48.42;94539.22;5075022;28;20224;-81
2022/06/24 07:00:56;;;;;;;0.40;0.40;;;24.10;64.50;;;24.52;48.24;94529.16;5046731;28;20249;-81
2022/06/24 07:03:24;;;;;;;0.30;0.30;;;24.30;64.50;;;24.60;48.23;94528.53;5081156;28;20230;-81
2022/06/24 07:05:51;;;;;;;0.60;0.60;;;24.40;64.30;;;24.71;48.26;94529.19;5059450;28;20246;-80
2022/06/24 07:08:18;;;;;;;0.40;0.40;;;24.50;64.30;;;24.77;47.91;94528.81;5050941;28;20207;-80
2022/06/24 07:10:45;;;;;;;0.30;0.30;;;24.60;64.00;;;24.81;47.50;94525.56;5038980;28;20310;-79
2022/06/24 07:13:13;;;;;;;0.50;0.50;;;24.70;63.60;;;24.80;47.44;94524.75;5053575;28;20289;-80
2022/06/24 07:15:40;;;;;;;0.30;0.30;;;24.70;63.50;;;24.76;47.40;94526.44;5078138;28;20225;-79
2022/06/24 07:18:08;;;;;;;0.43;0.43;;;24.70;63.30;;;24.73;47.40;94532.38;5044368;28;20693;-79
2022/06/24 07:20:36;;;;;;;0.30;0.30;;;24.60;63.20;;;24.70;47.64;94523.03;5048505;28;20238;-79
2022/06/24 07:23:04;;;;;;;0.40;0.40;;;24.60;63.30;;;24.71;47.75;94530.00;5034652;28;20198;-80
2022/06/24 07:25:32;;;;;;;0.30;0.30;;;24.60;63.40;;;24.82;47.77;94530.63;5048545;28;20232;-79
2022/06/24 07:28:00;;;;;;;0.40;0.40;;;24.70;63.80;;;24.94;47.71;94532.88;5055433;28;20211;-79
2022/06/24 07:30:28;;;;;;;0.60;0.60;;;24.70;64.00;;;25.14;47.67;94531.75;5074095;28;20261;-80
2022/06/24 07:32:55;;;;;;;0.30;0.30;;;24.90;63.90;;;25.29;47.62;94532.59;5071162;28;20287;-80
2022/06/24 07:35:23;;;;;;;0.40;0.40;;;25.00;63.70;;;25.38;47.05;94536.22;5024241;28;20316;-79
2022/06/24 07:38:11;;;;;;;0.40;0.40;;;25.10;63.40;;;25.46;47.16;94529.38;5033375;28;20204;-79
2022/06/24 07:40:38;;;;;;;0.30;0.30;;;25.20;63.20;;;25.53;46.72;94527.09;5047285;28;20226;-80
2022/06/24 07:43:06;;;;;;;0.40;0.40;;;25.30;63.10;;;25.60;47.24;94535.56;5030908;28;20210;-79
2022/06/24 07:45:33;;;;;;;0.60;0.60;;;25.40;63.20;;;25.68;46.84;94524.13;5033263;28;20711;-79
2022/06/24 07:48:01;;;;;;;0.40;0.40;;;25.50;63.20;;;25.79;46.81;94527.41;5042173;28;20671;-78
2022/06/24 07:50:28;;;;;;;0.30;0.30;;;25.60;63.10;;;25.87;47.03;94524.03;5029349;28;21377;-78
2022/06/24 07:52:55;;;;;;;0.30;0.30;;;25.70;63.00;;;25.91;46.91;94526.91;5035288;28;20218;-79
2022/06/24 07:58:09;;;;;;;0.30;0.30;;;25.90;62.70;;;26.11;46.50;94522.25;5044080;28;20348;-79
2022/06/24 08:00:36;;;;;;;0.30;0.30;;;26.00;62.50;;;26.20;46.66;94525.84;5027736;28;20250;-79
2022/06/24 08:03:03;;;;;;;0.30;0.30;;;26.00;62.50;;;26.27;46.20;94514.69;5011666;28;20211;-79
2022/06/24 08:05:31;;;;;;;0.30;0.30;;;26.10;62.50;;;26.37;46.14;94519.84;5041485;28;20225;-79
2022/06/24 08:07:59;;;;;;;0.40;0.40;;;26.20;62.40;;;26.45;46.23;94510.25;5021069;28;20222;-78
2022/06/24 08:10:27;;;;;;;0.30;0.30;;;26.30;62.30;;;26.49;45.80;94516.66;5017076;28;21155;-78
2022/06/24 08:12:54;;;;;;;0.30;0.30;;;26.30;62.10;;;26.56;45.99;94516.22;5035946;28;20703;-78
2022/06/24 08:15:22;;;;;;;0.40;0.40;;;26.40;62.20;;;26.66;46.00;94513.31;5033842;28;20724;-78
2022/06/24 08:17:49;;;;;;;0.30;0.30;;;26.50;62.40;;;26.77;45.77;94509.31;5029620;28;20228;-78
2022/06/24 08:20:16;;;;;;;0.30;0.30;;;26.60;62.10;;;26.89;45.92;94521.41;5041290;28;20227;-78
2022/06/24 08:22:43;;;;;;;0.30;0.30;;;26.70;62.10;;;26.98;45.48;94519.59;5026822;28;20209;-79
2022/06/24 08:25:10;;;;;;;0.30;0.30;;;26.80;61.90;;;27.03;45.66;94519.47;5036652;28;20260;-78
2022/06/24 08:27:52;;;;;;;0.40;0.40;;;26.90;61.70;;;27.10;45.73;94530.59;5051777;28;20203;-78
2022/06/24 08:30:20;;;;;;;0.30;0.30;;;26.90;61.70;;;27.16;45.09;94524.00;5042365;28;20491;-78
2022/06/24 08:32:47;;;;;;;0.35;0.35;;;27.00;61.40;;;27.20;44.69;94516.09;5048696;28;20203;-79
2022/06/24 08:35:14;;;;;;;0.35;0.35;;;27.10;61.20;;;27.21;45.77;94514.19;5034754;28;21615;-78
2022/06/24 08:37:54;;;;;;;0.30;0.30;;;27.10;61.10;;;27.22;45.29;94511.22;5031454;28;20623;-78
2022/06/24 08:40:23;;;;;;;0.30;0.30;;;27.20;61.40;;;27.29;45.26;94513.44;5009553;28;20514;-78
2022/06/24 08:42:58;;;;;;;0.30;0.30;;;27.20;61.30;;;27.37;45.58;94509.22;5049692;28;20217;-78
2022/06/24 08:45:27;;;;;;;0.35;0.35;;;27.30;61.50;;;27.48;45.49;94505.19;5042503;28;20285;-79
2022/06/24 08:47:54;;;;;;;0.30;0.30;;;27.40;61.50;;;27.56;45.68;94495.56;5037700;28;20207;-79
2022/06/24 08:50:23;;;;;;;0.30;0.30;;;27.50;61.60;;;27.61;44.99;94495.41;5028289;28;20697;-80
2022/06/24 08:52:54;;;;;;;0.30;0.30;;;27.60;61.30;;;27.64;45.25;94490.19;5058512;28;20217;-80
2022/06/24 08:55:24;;;;;;;0.30;0.30;;;27.60;61.20;;;27.67;45.23;94485.31;5047136;28;20576;-80
2022/06/24 08:57:53;;;;;;;0.30;0.30;;;27.70;61.20;;;27.71;45.00;94492.47;5016258;28;20736;-79
2022/06/24 09:00:21;;;;;;;0.40;0.40;;;27.70;61.30;;;27.75;45.68;94482.63;5034732;28;20392;-78
2022/06/24 09:02:49;;;;;;;0.30;0.30;;;27.70;61.20;;;27.79;45.28;94475.53;5018866;28;20217;-79
2022/06/24 09:05:16;;;;;;;0.30;0.30;;;27.80;61.20;;;27.84;45.13;94477.28;5012161;28;20616;-79
2022/06/24 09:07:45;;;;;;;0.30;0.30;;;27.80;61.10;;;27.96;45.33;94472.09;5032946;28;20284;-79
2022/06/24 09:10:13;;;;;;;0.38;0.38;;;27.90;61.00;;;28.03;44.75;94479.72;5017751;28;20331;-79
2022/06/24 09:12:44;;;;;;;0.30;0.30;;;28.00;61.10;;;28.13;44.93;94470.56;5036771;28;20677;-79
2022/06/24 09:15:14;;;;;;;0.30;0.30;;;28.10;60.90;;;28.21;44.87;94477.06;5040144;28;20298;-80
2022/06/24 09:17:42;;;;;;;0.40;0.40;;;28.10;60.80;;;28.30;44.67;94482.50;5059405;28;20203;-81
2022/06/24 09:20:23;;;;;;;0.35;0.35;;;28.20;60.90;;;28.45;45.15;94476.63;5039341;28;20225;-79
2022/06/24 09:23:10;;;;;;;0.30;0.30;;;28.30;61.30;;;28.66;45.25;94471.41;5031456;28;20208;-79
2022/06/24 09:25:45;;;;;;;0.38;0.38;;;28.50;61.40;;;28.90;45.03;94470.13;5059856;28;20728;-78
2022/06/24 09:28:31;;;;;;;0.28;0.28;;;28.70;62.20;;;29.17;44.71;94460.09;5057342;28;20602;-78
2022/06/24 09:31:05;;;;;;;0.32;0.32;;;28.90;61.20;;;29.35;44.45;94461.66;5038745;28;20230;-79
2022/06/24 09:33:44;;;;;;;0.40;0.40;;;29.10;60.80;;;29.49;43.97;94469.56;5035091;28;20553;-80
2022/06/24 09:36:12;;;;;;;0.30;0.30;;;29.30;60.30;;;29.56;44.01;94458.25;5035549;28;20221;-80
2022/06/24 09:39:07;;;;;;;0.30;0.30;;;29.40;60.10;;;29.65;44.22;94460.91;5024699;28;20205;-79
2022/06/24 09:41:46;;;;;;;0.30;0.30;;;29.60;60.40;;;29.79;43.87;94458.78;5040744;28;20234;-79
2022/06/24 09:44:15;;;;;;;0.30;0.30;;;29.70;60.20;;;30.00;43.77;94456.16;5043089;28;20210;-80
2022/06/24 09:46:42;;;;;;;0.30;0.30;;;29.80;60.10;;;30.20;43.66;94461.94;5008590;28;20211;-80
2022/06/24 09:49:19;;;;;;;0.40;0.40;;;30.00;60.20;;;30.41;43.05;94463.88;5027627;28;20665;-79
2022/06/24 09:51:46;;;;;;;0.40;0.40;;;30.20;60.00;;;30.52;43.21;94465.06;5029109;28;20656;-79
2022/06/24 09:54:17;;;;;;;0.30;0.30;;;30.30;58.90;;;30.63;42.05;94463.53;5030006;28;20207;-78
2022/06/24 09:56:47;;;;;;;0.30;0.30;;;30.50;58.60;;;30.70;42.82;94464.91;5048591;28;21041;-78
2022/06/24 10:02:18;;;;;;;0.30;0.30;;;30.60;58.40;;;30.69;42.42;94464.16;5046691;28;20204;-79
2022/06/24 10:04:52;;;;;;;0.40;0.40;;;30.70;58.20;;;30.59;41.60;94465.34;5035430;28;20230;-78
2022/06/24 10:07:24;;;;;;;0.30;0.30;;;30.60;57.60;;;30.46;42.14;94458.25;5059665;28;20334;-78
2022/06/24 10:10:04;;;;;;;0.30;0.30;;;30.50;57.60;;;30.46;42.40;94477.97;5051294;28;20230;-78
2022/06/24 10:12:54;;;;;;;0.45;0.45;;;30.50;58.00;;;30.48;43.05;94464.91;5060590;28;20198;-78
2022/06/24 10:15:22;;;;;;;0.30;0.30;;;30.50;58.50;;;30.62;42.15;94467.38;5074617;28;20242;-78
2022/06/24 10:17:50;;;;;;;0.25;0.25;;;30.50;58.40;;;30.75;42.16;94456.59;5036406;28;20191;-79
2022/06/24 10:20:20;;;;;;;0.25;0.25;;;30.60;57.80;;;30.87;41.38;94459.38;5065123;28;20755;-79
2022/06/24 10:22:50;;;;;;;0.20;0.20;;;30.70;57.60;;;30.98;41.56;94460.53;5050514;28;20207;-80
2022/06/24 10:25:21;;;;;;;0.30;0.30;;;30.90;57.60;;;31.10;41.71;94450.88;5047243;28;20957;-79
2022/06/24 10:27:58;;;;;;;0.30;0.30;;;30.90;57.60;;;31.11;40.91;94453.25;5062644;28;20207;-81
2022/06/24 10:30:47;;;;;;;0.40;0.40;;;31.00;57.00;;;31.08;41.45;94447.72;5033344;28;20227;-80
2022/06/24 10:33:28;;;;;;;0.30;0.30;;;31.00;57.20;;;31.04;41.21;94447.59;5035891;28;20188;-78
2022/06/24 10:36:02;;;;;;;0.30;0.30;;;31.00;56.80;;;31.06;41.37;94460.78;5049455;28;20228;-78
2022/06/24 10:38:41;;;;;;;0.40;0.40;;;31.00;56.70;;;31.01;40.96;94459.06;5063769;28;20197;-79
2022/06/24 10:41:11;;;;;;;0.40;0.40;;;31.00;56.60;;;30.94;41.03;94461.53;5059314;28;20230;-79